sensor_id;sensor_type;location;lat;lon;timestamp;P1;durP1;ratioP1;P2;durP2;ratioP2
22449;SDS011;11392;57.390;-2.468;2022-07-29T00:01:03;18.80;;;14.90;;
22449;SDS011;11392;57.390;-2.468;2022-07-29T00:03:30;19.33;;;14.38;;
22449;SDS011;11392;57.390;-2.468;2022-07-29T00:05:57;23.05;;;16.50;;
22449;SDS011;11392;57.390;-2.468;2022-07-29T00:08:25;21.12;;;16.10;;
22449;SDS011;11392;57.390;-2.468;2022-07-29T00:10:53;21.52;;;15.45;;
22449;SDS011;11392;57.390;-2.468;2022-07-29T00:13:20;22.42;;;17.70;;
22449;SDS011;11392;57.390;-2.468;2022-07-29T00:15:58;19.25;;;14.80;;
22449;SDS011;11392;57.390;-2.468;2022-07-29T00:18:30;22.75;;;17.23;;
22449;SDS011;11392;57.390;-2.468;2022-07-29T00:20:58;20.23;;;16.65;;
22449;SDS011;11392;57.390;-2.468;2022-07-29T00:23:25;21.75;;;16.25;;
22449;SDS011;11392;57.390;-2.468;2022-07-29T00:25:52;18.80;;;15.00;;
22449;SDS011;11392;57.390;-2.468;2022-07-29T00:28:18;18.83;;;15.77;;
22449;SDS011;11392;57.390;-2.468;2022-07-29T00:30:46;19.67;;;16.08;;
22449;SDS011;11392;57.390;-2.468;2022-07-29T00:33:13;17.42;;;13.50;;
22449;SDS011;11392;57.390;-2.468;2022-07-29T00:35:40;19.35;;;16.27;;
22449;SDS011;11392;57.390;-2.468;2022-07-29T00:38:14;24.45;;;17.20;;
22449;SDS011;11392;57.390;-2.468;2022-07-29T00:40:43;21.37;;;16.30;;
22449;SDS011;11392;57.390;-2.468;2022-07-29T00:43:11;18.73;;;15.63;;
22449;SDS011;11392;57.390;-2.468;2022-07-29T00:45:40;17.23;;;13.55;;
22449;SDS011;11392;57.390;-2.468;2022-07-29T00:48:08;22.05;;;15.93;;
22449;SDS011;11392;57.390;-2.468;2022-07-29T00:50:35;22.37;;;16.50;;
22449;SDS011;11392;57.390;-2.468;2022-07-29T00:53:03;25.45;;;18.75;;
22449;SDS011;11392;57.390;-2.468;2022-07-29T00:55:33;18.75;;;14.75;;
22449;SDS011;11392;57.390;-2.468;2022-07-29T00:58:00;20.70;;;16.25;;
22449;SDS011;11392;57.390;-2.468;2022-07-29T01:00:28;23.30;;;17.17;;
22449;SDS011;11392;57.390;-2.468;2022-07-29T01:02:55;19.67;;;15.35;;
22449;SDS011;11392;57.390;-2.468;2022-07-29T01:05:23;20.65;;;16.08;;
22449;SDS011;11392;57.390;-2.468;2022-07-29T01:08:13;21.83;;;16.10;;
22449;SDS011;11392;57.390;-2.468;2022-07-29T01:10:41;17.67;;;13.65;;
22449;SDS011;11392;57.390;-2.468;2022-07-29T01:13:11;17.73;;;15.68;;
22449;SDS011;11392;57.390;-2.468;2022-07-29T01:15:45;18.10;;;15.02;;
22449;SDS011;11392;57.390;-2.468;2022-07-29T01:18:18;14.27;;;11.52;;
22449;SDS011;11392;57.390;-2.468;2022-07-29T01:24:11;21.70;;;15.68;;
22449;SDS011;11392;57.390;-2.468;2022-07-29T01:26:59;20.83;;;14.45;;
22449;SDS011;11392;57.390;-2.468;2022-07-29T01:29:49;16.10;;;14.13;;
22449;SDS011;11392;57.390;-2.468;2022-07-29T01:32:24;17.52;;;14.93;;
22449;SDS011;11392;57.390;-2.468;2022-07-29T01:37:43;18.87;;;15.50;;
22449;SDS011;11392;57.390;-2.468;2022-07-29T01:40:27;18.92;;;15.70;;
22449;SDS011;11392;57.390;-2.468;2022-07-29T01:43:00;18.60;;;15.13;;
22449;SDS011;11392;57.390;-2.468;2022-07-29T01:45:41;19.42;;;16.70;;
22449;SDS011;11392;57.390;-2.468;2022-07-29T01:48:15;17.27;;;14.23;;
22449;SDS011;11392;57.390;-2.468;2022-07-29T01:50:55;21.08;;;14.90;;
22449;SDS011;11392;57.390;-2.468;2022-07-29T01:53:35;19.50;;;15.73;;
22449;SDS011;11392;57.390;-2.468;2022-07-29T01:56:22;21.87;;;15.48;;
22449;SDS011;11392;57.390;-2.468;2022-07-29T01:58:55;21.08;;;16.12;;
22449;SDS011;11392;57.390;-2.468;2022-07-29T02:01:25;19.37;;;16.45;;
22449;SDS011;11392;57.390;-2.468;2022-07-29T02:03:53;19.08;;;14.43;;
22449;SDS011;11392;57.390;-2.468;2022-07-29T02:06:22;17.25;;;13.88;;
22449;SDS011;11392;57.390;-2.468;2022-07-29T02:08:50;15.57;;;12.80;;
22449;SDS011;11392;57.390;-2.468;2022-07-29T02:11:18;17.25;;;13.45;;
22449;SDS011;11392;57.390;-2.468;2022-07-29T02:13:45;18.87;;;14.98;;
22449;SDS011;11392;57.390;-2.468;2022-07-29T02:16:14;18.25;;;15.50;;
22449;SDS011;11392;57.390;-2.468;2022-07-29T02:18:42;17.30;;;12.90;;
22449;SDS011;11392;57.390;-2.468;2022-07-29T02:21:14;18.15;;;14.35;;
22449;SDS011;11392;57.390;-2.468;2022-07-29T02:23:45;18.52;;;14.15;;
22449;SDS011;11392;57.390;-2.468;2022-07-29T02:26:17;21.23;;;15.77;;
22449;SDS011;11392;57.390;-2.468;2022-07-29T02:28:47;13.82;;;11.50;;
22449;SDS011;11392;57.390;-2.468;2022-07-29T02:31:16;25.05;;;15.20;;
22449;SDS011;11392;57.390;-2.468;2022-07-29T02:33:47;14.80;;;12.48;;
22449;SDS011;11392;57.390;-2.468;2022-07-29T02:36:15;15.93;;;13.98;;
22449;SDS011;11392;57.390;-2.468;2022-07-29T02:38:43;18.65;;;14.70;;
22449;SDS011;11392;57.390;-2.468;2022-07-29T02:41:18;19.20;;;13.50;;
22449;SDS011;11392;57.390;-2.468;2022-07-29T02:43:50;15.75;;;13.60;;
22449;SDS011;11392;57.390;-2.468;2022-07-29T02:46:29;17.37;;;15.18;;
22449;SDS011;11392;57.390;-2.468;2022-07-29T02:49:02;13.43;;;11.35;;
22449;SDS011;11392;57.390;-2.468;2022-07-29T02:51:45;17.83;;;12.90;;
22449;SDS011;11392;57.390;-2.468;2022-07-29T02:54:31;18.87;;;13.52;;
22449;SDS011;11392;57.390;-2.468;2022-07-29T02:56:58;12.73;;;11.07;;
22449;SDS011;11392;57.390;-2.468;2022-07-29T02:59:30;16.50;;;13.38;;
22449;SDS011;11392;57.390;-2.468;2022-07-29T03:02:00;16.27;;;12.82;;
22449;SDS011;11392;57.390;-2.468;2022-07-29T03:04:31;14.93;;;12.85;;
22449;SDS011;11392;57.390;-2.468;2022-07-29T03:07:01;21.83;;;15.40;;
22449;SDS011;11392;57.390;-2.468;2022-07-29T03:09:29;14.70;;;12.82;;
22449;SDS011;11392;57.390;-2.468;2022-07-29T03:11:57;17.95;;;14.93;;
22449;SDS011;11392;57.390;-2.468;2022-07-29T03:14:26;14.00;;;12.37;;
22449;SDS011;11392;57.390;-2.468;2022-07-29T03:16:53;18.83;;;14.95;;
22449;SDS011;11392;57.390;-2.468;2022-07-29T03:19:21;18.15;;;14.18;;
22449;SDS011;11392;57.390;-2.468;2022-07-29T03:21:48;20.50;;;15.48;;
22449;SDS011;11392;57.390;-2.468;2022-07-29T03:24:29;18.05;;;13.15;;
22449;SDS011;11392;57.390;-2.468;2022-07-29T03:27:01;18.02;;;15.38;;
22449;SDS011;11392;57.390;-2.468;2022-07-29T03:29:29;17.17;;;14.70;;
22449;SDS011;11392;57.390;-2.468;2022-07-29T03:32:00;15.93;;;13.30;;
22449;SDS011;11392;57.390;-2.468;2022-07-29T03:34:33;19.12;;;14.85;;
22449;SDS011;11392;57.390;-2.468;2022-07-29T03:37:01;17.55;;;14.40;;
22449;SDS011;11392;57.390;-2.468;2022-07-29T03:39:29;18.05;;;14.43;;
22449;SDS011;11392;57.390;-2.468;2022-07-29T03:42:00;16.85;;;14.48;;
22449;SDS011;11392;57.390;-2.468;2022-07-29T03:44:28;20.35;;;14.90;;
22449;SDS011;11392;57.390;-2.468;2022-07-29T03:46:57;16.23;;;13.80;;
22449;SDS011;11392;57.390;-2.468;2022-07-29T03:49:28;18.50;;;15.88;;
22449;SDS011;11392;57.390;-2.468;2022-07-29T03:51:57;16.00;;;14.23;;
22449;SDS011;11392;57.390;-2.468;2022-07-29T03:54:24;12.85;;;11.43;;
22449;SDS011;11392;57.390;-2.468;2022-07-29T03:56:52;18.58;;;13.85;;
22449;SDS011;11392;57.390;-2.468;2022-07-29T03:59:20;17.17;;;13.38;;
22449;SDS011;11392;57.390;-2.468;2022-07-29T04:01:48;16.42;;;13.07;;
22449;SDS011;11392;57.390;-2.468;2022-07-29T04:04:16;20.17;;;14.98;;
22449;SDS011;11392;57.390;-2.468;2022-07-29T04:06:45;16.05;;;13.60;;
22449;SDS011;11392;57.390;-2.468;2022-07-29T04:09:13;14.80;;;13.05;;
22449;SDS011;11392;57.390;-2.468;2022-07-29T04:11:41;20.35;;;14.00;;
22449;SDS011;11392;57.390;-2.468;2022-07-29T04:14:28;16.37;;;11.95;;
22449;SDS011;11392;57.390;-2.468;2022-07-29T04:16:55;13.05;;;11.27;;
22449;SDS011;11392;57.390;-2.468;2022-07-29T04:19:22;12.95;;;10.98;;
22449;SDS011;11392;57.390;-2.468;2022-07-29T04:21:49;14.73;;;12.10;;
22449;SDS011;11392;57.390;-2.468;2022-07-29T04:24:17;17.20;;;12.32;;
22449;SDS011;11392;57.390;-2.468;2022-07-29T04:26:45;13.30;;;11.60;;
22449;SDS011;11392;57.390;-2.468;2022-07-29T04:29:13;13.93;;;11.75;;
22449;SDS011;11392;57.390;-2.468;2022-07-29T04:31:41;13.55;;;10.88;;
22449;SDS011;11392;57.390;-2.468;2022-07-29T04:34:08;10.77;;;9.68;;
22449;SDS011;11392;57.390;-2.468;2022-07-29T04:36:35;13.62;;;10.68;;
22449;SDS011;11392;57.390;-2.468;2022-07-29T04:39:03;13.55;;;11.50;;
22449;SDS011;11392;57.390;-2.468;2022-07-29T04:41:30;18.30;;;12.88;;
22449;SDS011;11392;57.390;-2.468;2022-07-29T04:43:59;15.57;;;12.15;;
22449;SDS011;11392;57.390;-2.468;2022-07-29T04:46:32;14.20;;;11.35;;
22449;SDS011;11392;57.390;-2.468;2022-07-29T04:48:59;12.18;;;9.95;;
22449;SDS011;11392;57.390;-2.468;2022-07-29T04:51:27;11.68;;;9.73;;
22449;SDS011;11392;57.390;-2.468;2022-07-29T04:53:54;12.82;;;10.50;;
22449;SDS011;11392;57.390;-2.468;2022-07-29T04:56:21;14.38;;;11.73;;
22449;SDS011;11392;57.390;-2.468;2022-07-29T04:58:48;15.38;;;11.65;;
22449;SDS011;11392;57.390;-2.468;2022-07-29T05:01:15;17.50;;;12.73;;
22449;SDS011;11392;57.390;-2.468;2022-07-29T05:03:42;15.00;;;12.52;;
22449;SDS011;11392;57.390;-2.468;2022-07-29T05:06:09;14.55;;;10.95;;
22449;SDS011;11392;57.390;-2.468;2022-07-29T05:08:36;17.27;;;12.75;;
22449;SDS011;11392;57.390;-2.468;2022-07-29T05:11:07;15.57;;;11.82;;
22449;SDS011;11392;57.390;-2.468;2022-07-29T05:13:38;16.37;;;11.38;;
22449;SDS011;11392;57.390;-2.468;2022-07-29T05:16:12;14.80;;;10.52;;
22449;SDS011;11392;57.390;-2.468;2022-07-29T05:18:40;13.75;;;10.13;;
22449;SDS011;11392;57.390;-2.468;2022-07-29T05:21:08;12.40;;;10.45;;
22449;SDS011;11392;57.390;-2.468;2022-07-29T05:23:35;13.50;;;12.05;;
22449;SDS011;11392;57.390;-2.468;2022-07-29T05:26:02;12.52;;;9.65;;
22449;SDS011;11392;57.390;-2.468;2022-07-29T05:28:32;13.77;;;10.13;;
22449;SDS011;11392;57.390;-2.468;2022-07-29T05:31:01;13.60;;;11.02;;
22449;SDS011;11392;57.390;-2.468;2022-07-29T05:33:28;13.77;;;11.55;;
22449;SDS011;11392;57.390;-2.468;2022-07-29T05:36:02;14.87;;;11.35;;
22449;SDS011;11392;57.390;-2.468;2022-07-29T05:38:33;12.43;;;10.40;;
22449;SDS011;11392;57.390;-2.468;2022-07-29T05:41:01;18.02;;;10.60;;
22449;SDS011;11392;57.390;-2.468;2022-07-29T05:43:29;12.85;;;11.50;;
22449;SDS011;11392;57.390;-2.468;2022-07-29T05:45:56;13.05;;;10.98;;
22449;SDS011;11392;57.390;-2.468;2022-07-29T05:48:24;10.27;;;9.25;;
22449;SDS011;11392;57.390;-2.468;2022-07-29T05:50:51;11.52;;;9.52;;
22449;SDS011;11392;57.390;-2.468;2022-07-29T05:53:18;11.50;;;10.20;;
22449;SDS011;11392;57.390;-2.468;2022-07-29T05:55:49;11.95;;;10.65;;
22449;SDS011;11392;57.390;-2.468;2022-07-29T05:58:16;11.20;;;9.80;;
22449;SDS011;11392;57.390;-2.468;2022-07-29T06:00:43;11.85;;;10.40;;
22449;SDS011;11392;57.390;-2.468;2022-07-29T06:03:11;14.82;;;11.63;;
22449;SDS011;11392;57.390;-2.468;2022-07-29T06:05:38;16.10;;;12.43;;
22449;SDS011;11392;57.390;-2.468;2022-07-29T06:08:05;17.10;;;10.70;;
22449;SDS011;11392;57.390;-2.468;2022-07-29T06:10:36;12.65;;;10.63;;
22449;SDS011;11392;57.390;-2.468;2022-07-29T06:13:03;16.50;;;12.55;;
22449;SDS011;11392;57.390;-2.468;2022-07-29T06:15:30;15.07;;;11.93;;
22449;SDS011;11392;57.390;-2.468;2022-07-29T06:17:58;15.10;;;11.90;;
22449;SDS011;11392;57.390;-2.468;2022-07-29T06:20:28;12.63;;;10.18;;
22449;SDS011;11392;57.390;-2.468;2022-07-29T06:22:57;16.20;;;10.90;;
22449;SDS011;11392;57.390;-2.468;2022-07-29T06:25:24;12.00;;;10.07;;
22449;SDS011;11392;57.390;-2.468;2022-07-29T06:27:52;9.48;;;8.48;;
22449;SDS011;11392;57.390;-2.468;2022-07-29T06:30:19;12.20;;;10.20;;
22449;SDS011;11392;57.390;-2.468;2022-07-29T06:32:46;12.75;;;10.60;;
22449;SDS011;11392;57.390;-2.468;2022-07-29T06:35:14;10.57;;;9.52;;
22449;SDS011;11392;57.390;-2.468;2022-07-29T06:38:04;13.62;;;9.48;;
22449;SDS011;11392;57.390;-2.468;2022-07-29T06:40:51;10.50;;;9.40;;
22449;SDS011;11392;57.390;-2.468;2022-07-29T06:43:33;13.50;;;10.23;;
22449;SDS011;11392;57.390;-2.468;2022-07-29T06:46:16;13.38;;;11.85;;
22449;SDS011;11392;57.390;-2.468;2022-07-29T06:48:45;13.98;;;11.02;;
22449;SDS011;11392;57.390;-2.468;2022-07-29T06:51:14;12.27;;;11.00;;
22449;SDS011;11392;57.390;-2.468;2022-07-29T06:53:48;13.00;;;11.68;;
22449;SDS011;11392;57.390;-2.468;2022-07-29T06:56:31;11.07;;;9.95;;
22449;SDS011;11392;57.390;-2.468;2022-07-29T06:59:05;10.40;;;9.30;;
22449;SDS011;11392;57.390;-2.468;2022-07-29T07:01:33;10.10;;;9.05;;
22449;SDS011;11392;57.390;-2.468;2022-07-29T07:04:01;12.65;;;10.23;;
22449;SDS011;11392;57.390;-2.468;2022-07-29T07:06:29;10.65;;;9.52;;
22449;SDS011;11392;57.390;-2.468;2022-07-29T07:08:56;12.95;;;9.77;;
22449;SDS011;11392;57.390;-2.468;2022-07-29T07:11:23;13.45;;;10.40;;
22449;SDS011;11392;57.390;-2.468;2022-07-29T07:13:50;14.87;;;10.38;;
22449;SDS011;11392;57.390;-2.468;2022-07-29T07:16:17;12.25;;;11.00;;
22449;SDS011;11392;57.390;-2.468;2022-07-29T07:18:44;13.23;;;11.90;;
22449;SDS011;11392;57.390;-2.468;2022-07-29T07:21:11;15.85;;;11.68;;
22449;SDS011;11392;57.390;-2.468;2022-07-29T07:23:45;12.50;;;11.20;;
22449;SDS011;11392;57.390;-2.468;2022-07-29T07:26:12;12.43;;;10.68;;
22449;SDS011;11392;57.390;-2.468;2022-07-29T07:28:39;11.77;;;10.57;;
22449;SDS011;11392;57.390;-2.468;2022-07-29T07:31:06;15.10;;;12.45;;
22449;SDS011;11392;57.390;-2.468;2022-07-29T07:33:34;13.20;;;11.57;;
22449;SDS011;11392;57.390;-2.468;2022-07-29T07:36:01;11.30;;;10.10;;
22449;SDS011;11392;57.390;-2.468;2022-07-29T07:38:28;13.30;;;11.38;;
22449;SDS011;11392;57.390;-2.468;2022-07-29T07:40:55;15.02;;;11.52;;
22449;SDS011;11392;57.390;-2.468;2022-07-29T07:43:22;13.90;;;10.82;;
22449;SDS011;11392;57.390;-2.468;2022-07-29T07:45:49;10.57;;;9.55;;
22449;SDS011;11392;57.390;-2.468;2022-07-29T07:48:16;12.32;;;10.15;;
22449;SDS011;11392;57.390;-2.468;2022-07-29T07:50:43;11.73;;;10.13;;
22449;SDS011;11392;57.390;-2.468;2022-07-29T07:53:10;8.48;;;7.62;;
22449;SDS011;11392;57.390;-2.468;2022-07-29T07:55:41;10.70;;;9.60;;
22449;SDS011;11392;57.390;-2.468;2022-07-29T07:58:28;10.65;;;7.20;;
22449;SDS011;11392;57.390;-2.468;2022-07-29T08:00:55;9.25;;;8.30;;
22449;SDS011;11392;57.390;-2.468;2022-07-29T08:03:22;9.32;;;7.75;;
22449;SDS011;11392;57.390;-2.468;2022-07-29T08:05:50;11.75;;;7.05;;
22449;SDS011;11392;57.390;-2.468;2022-07-29T08:08:18;10.55;;;8.95;;
22449;SDS011;11392;57.390;-2.468;2022-07-29T08:10:45;9.93;;;6.57;;
22449;SDS011;11392;57.390;-2.468;2022-07-29T08:13:21;7.47;;;6.37;;
22449;SDS011;11392;57.390;-2.468;2022-07-29T08:15:54;10.93;;;8.63;;
22449;SDS011;11392;57.390;-2.468;2022-07-29T08:18:30;6.10;;;5.50;;
22449;SDS011;11392;57.390;-2.468;2022-07-29T08:20:57;9.27;;;6.18;;
22449;SDS011;11392;57.390;-2.468;2022-07-29T08:23:24;10.95;;;8.40;;
22449;SDS011;11392;57.390;-2.468;2022-07-29T08:26:11;9.50;;;7.22;;
22449;SDS011;11392;57.390;-2.468;2022-07-29T08:28:39;8.00;;;7.10;;
22449;SDS011;11392;57.390;-2.468;2022-07-29T08:31:12;7.32;;;6.60;;
22449;SDS011;11392;57.390;-2.468;2022-07-29T08:33:40;6.68;;;6.00;;
22449;SDS011;11392;57.390;-2.468;2022-07-29T08:36:07;9.13;;;5.65;;
22449;SDS011;11392;57.390;-2.468;2022-07-29T08:38:34;7.25;;;5.53;;
22449;SDS011;11392;57.390;-2.468;2022-07-29T08:41:01;7.28;;;5.90;;
22449;SDS011;11392;57.390;-2.468;2022-07-29T08:43:28;5.95;;;5.37;;
22449;SDS011;11392;57.390;-2.468;2022-07-29T08:45:55;9.02;;;6.10;;
22449;SDS011;11392;57.390;-2.468;2022-07-29T08:48:23;5.85;;;5.22;;
22449;SDS011;11392;57.390;-2.468;2022-07-29T08:50:54;6.10;;;5.28;;
22449;SDS011;11392;57.390;-2.468;2022-07-29T08:53:23;6.95;;;5.03;;
22449;SDS011;11392;57.390;-2.468;2022-07-29T08:55:53;6.47;;;4.80;;
22449;SDS011;11392;57.390;-2.468;2022-07-29T08:58:20;8.20;;;4.82;;
22449;SDS011;11392;57.390;-2.468;2022-07-29T09:00:54;6.07;;;4.35;;
22449;SDS011;11392;57.390;-2.468;2022-07-29T09:03:24;5.15;;;3.80;;
22449;SDS011;11392;57.390;-2.468;2022-07-29T09:05:53;6.43;;;3.72;;
22449;SDS011;11392;57.390;-2.468;2022-07-29T09:08:21;4.90;;;4.10;;
22449;SDS011;11392;57.390;-2.468;2022-07-29T09:10:48;4.30;;;3.30;;
22449;SDS011;11392;57.390;-2.468;2022-07-29T09:13:15;6.22;;;4.28;;
22449;SDS011;11392;57.390;-2.468;2022-07-29T09:15:42;8.18;;;3.00;;
22449;SDS011;11392;57.390;-2.468;2022-07-29T09:18:10;4.62;;;3.12;;
22449;SDS011;11392;57.390;-2.468;2022-07-29T09:20:56;2.80;;;2.50;;
22449;SDS011;11392;57.390;-2.468;2022-07-29T09:23:58;5.57;;;3.40;;
22449;SDS011;11392;57.390;-2.468;2022-07-29T09:26:30;4.37;;;3.00;;
22449;SDS011;11392;57.390;-2.468;2022-07-29T09:28:58;3.03;;;2.72;;
22449;SDS011;11392;57.390;-2.468;2022-07-29T09:31:32;2.67;;;2.47;;
22449;SDS011;11392;57.390;-2.468;2022-07-29T09:34:01;3.40;;;2.42;;
22449;SDS011;11392;57.390;-2.468;2022-07-29T09:36:28;5.12;;;2.75;;
22449;SDS011;11392;57.390;-2.468;2022-07-29T09:38:59;4.03;;;2.65;;
22449;SDS011;11392;57.390;-2.468;2022-07-29T09:41:28;2.62;;;2.10;;
22449;SDS011;11392;57.390;-2.468;2022-07-29T09:43:56;2.53;;;2.17;;
22449;SDS011;11392;57.390;-2.468;2022-07-29T09:46:26;4.78;;;2.70;;
22449;SDS011;11392;57.390;-2.468;2022-07-29T09:49:12;3.05;;;2.37;;
22449;SDS011;11392;57.390;-2.468;2022-07-29T09:51:40;4.15;;;2.65;;
22449;SDS011;11392;57.390;-2.468;2022-07-29T09:54:23;2.80;;;1.87;;
22449;SDS011;11392;57.390;-2.468;2022-07-29T09:56:52;3.90;;;2.30;;
22449;SDS011;11392;57.390;-2.468;2022-07-29T09:59:20;2.85;;;2.03;;
22449;SDS011;11392;57.390;-2.468;2022-07-29T10:01:50;2.80;;;2.20;;
22449;SDS011;11392;57.390;-2.468;2022-07-29T10:04:18;5.07;;;2.42;;
22449;SDS011;11392;57.390;-2.468;2022-07-29T10:06:58;3.20;;;2.25;;
22449;SDS011;11392;57.390;-2.468;2022-07-29T10:09:30;3.08;;;2.25;;
22449;SDS011;11392;57.390;-2.468;2022-07-29T10:14:40;3.37;;;2.00;;
22449;SDS011;11392;57.390;-2.468;2022-07-29T10:17:09;5.20;;;2.12;;
22449;SDS011;11392;57.390;-2.468;2022-07-29T10:19:36;3.47;;;2.03;;
22449;SDS011;11392;57.390;-2.468;2022-07-29T10:22:06;3.87;;;2.00;;
22449;SDS011;11392;57.390;-2.468;2022-07-29T10:24:35;2.25;;;1.70;;
22449;SDS011;11392;57.390;-2.468;2022-07-29T10:27:05;2.92;;;2.10;;
22449;SDS011;11392;57.390;-2.468;2022-07-29T10:29:33;2.80;;;1.83;;
22449;SDS011;11392;57.390;-2.468;2022-07-29T10:43:36;3.17;;;2.05;;
22449;SDS011;11392;57.390;-2.468;2022-07-29T10:46:08;3.33;;;1.90;;
22449;SDS011;11392;57.390;-2.468;2022-07-29T10:57:12;4.40;;;2.12;;
22449;SDS011;11392;57.390;-2.468;2022-07-29T11:03:00;1.70;;;1.60;;
22449;SDS011;11392;57.390;-2.468;2022-07-29T11:05:54;3.58;;;1.85;;
22449;SDS011;11392;57.390;-2.468;2022-07-29T11:08:25;2.85;;;1.70;;
22449;SDS011;11392;57.390;-2.468;2022-07-29T11:13:48;2.42;;;1.40;;
22449;SDS011;11392;57.390;-2.468;2022-07-29T11:16:19;1.48;;;1.30;;
22449;SDS011;11392;57.390;-2.468;2022-07-29T11:21:41;2.67;;;1.60;;
22449;SDS011;11392;57.390;-2.468;2022-07-29T11:24:27;2.72;;;1.58;;
22449;SDS011;11392;57.390;-2.468;2022-07-29T11:29:55;1.45;;;1.25;;
22449;SDS011;11392;57.390;-2.468;2022-07-29T11:32:36;1.65;;;1.50;;
22449;SDS011;11392;57.390;-2.468;2022-07-29T11:35:11;2.12;;;1.50;;
22449;SDS011;11392;57.390;-2.468;2022-07-29T11:41:22;3.17;;;1.70;;
22449;SDS011;11392;57.390;-2.468;2022-07-29T11:43:57;1.42;;;1.27;;
22449;SDS011;11392;57.390;-2.468;2022-07-29T11:46:49;1.98;;;1.65;;
22449;SDS011;11392;57.390;-2.468;2022-07-29T11:49:28;3.00;;;1.37;;
22449;SDS011;11392;57.390;-2.468;2022-07-29T11:51:58;1.30;;;1.20;;
22449;SDS011;11392;57.390;-2.468;2022-07-29T11:54:33;2.45;;;1.50;;
22449;SDS011;11392;57.390;-2.468;2022-07-29T11:57:21;1.30;;;1.05;;
22449;SDS011;11392;57.390;-2.468;2022-07-29T12:00:03;2.50;;;1.33;;
22449;SDS011;11392;57.390;-2.468;2022-07-29T12:02:38;3.20;;;1.30;;
22449;SDS011;11392;57.390;-2.468;2022-07-29T12:05:09;2.20;;;1.20;;
22449;SDS011;11392;57.390;-2.468;2022-07-29T12:07:37;3.72;;;1.37;;
22449;SDS011;11392;57.390;-2.468;2022-07-29T12:10:10;1.23;;;1.10;;
22449;SDS011;11392;57.390;-2.468;2022-07-29T12:12:55;2.53;;;1.50;;
22449;SDS011;11392;57.390;-2.468;2022-07-29T12:15:23;1.58;;;1.20;;
22449;SDS011;11392;57.390;-2.468;2022-07-29T12:18:12;3.15;;;1.30;;
22449;SDS011;11392;57.390;-2.468;2022-07-29T12:20:43;2.55;;;1.48;;
22449;SDS011;11392;57.390;-2.468;2022-07-29T12:23:11;3.47;;;1.60;;
22449;SDS011;11392;57.390;-2.468;2022-07-29T12:25:41;1.58;;;1.20;;
22449;SDS011;11392;57.390;-2.468;2022-07-29T12:28:14;1.27;;;1.17;;
22449;SDS011;11392;57.390;-2.468;2022-07-29T12:30:52;2.03;;;1.48;;
22449;SDS011;11392;57.390;-2.468;2022-07-29T12:35:53;1.80;;;1.30;;
22449;SDS011;11392;57.390;-2.468;2022-07-29T12:38:32;3.37;;;1.30;;
22449;SDS011;11392;57.390;-2.468;2022-07-29T12:41:01;3.62;;;1.33;;
22449;SDS011;11392;57.390;-2.468;2022-07-29T12:43:29;1.40;;;1.30;;
22449;SDS011;11392;57.390;-2.468;2022-07-29T12:45:57;1.65;;;1.55;;
22449;SDS011;11392;57.390;-2.468;2022-07-29T12:48:38;2.42;;;1.40;;
22449;SDS011;11392;57.390;-2.468;2022-07-29T12:51:07;1.60;;;1.40;;
22449;SDS011;11392;57.390;-2.468;2022-07-29T12:53:35;1.92;;;1.67;;
22449;SDS011;11392;57.390;-2.468;2022-07-29T12:56:03;2.62;;;1.42;;
22449;SDS011;11392;57.390;-2.468;2022-07-29T12:58:46;1.70;;;1.20;;
22449;SDS011;11392;57.390;-2.468;2022-07-29T13:01:17;1.85;;;1.42;;
22449;SDS011;11392;57.390;-2.468;2022-07-29T13:03:57;2.75;;;1.85;;
22449;SDS011;11392;57.390;-2.468;2022-07-29T13:06:33;2.70;;;1.40;;
22449;SDS011;11392;57.390;-2.468;2022-07-29T13:12:08;2.00;;;1.40;;
22449;SDS011;11392;57.390;-2.468;2022-07-29T13:14:41;2.70;;;1.40;;
22449;SDS011;11392;57.390;-2.468;2022-07-29T13:17:17;1.73;;;1.25;;
22449;SDS011;11392;57.390;-2.468;2022-07-29T13:20:07;1.40;;;1.25;;
22449;SDS011;11392;57.390;-2.468;2022-07-29T13:22:40;3.60;;;1.80;;
22449;SDS011;11392;57.390;-2.468;2022-07-29T13:25:11;1.23;;;1.20;;
22449;SDS011;11392;57.390;-2.468;2022-07-29T13:27:38;1.25;;;1.10;;
22449;SDS011;11392;57.390;-2.468;2022-07-29T13:30:10;1.52;;;1.30;;
22449;SDS011;11392;57.390;-2.468;2022-07-29T13:32:38;2.42;;;1.60;;
22449;SDS011;11392;57.390;-2.468;2022-07-29T13:35:06;2.60;;;1.50;;
22449;SDS011;11392;57.390;-2.468;2022-07-29T13:37:35;1.92;;;1.40;;
22449;SDS011;11392;57.390;-2.468;2022-07-29T13:40:05;1.48;;;1.25;;
22449;SDS011;11392;57.390;-2.468;2022-07-29T13:42:34;2.35;;;1.40;;
22449;SDS011;11392;57.390;-2.468;2022-07-29T13:45:02;3.15;;;1.62;;
22449;SDS011;11392;57.390;-2.468;2022-07-29T13:47:30;3.87;;;1.92;;
22449;SDS011;11392;57.390;-2.468;2022-07-29T13:50:02;2.25;;;1.73;;
22449;SDS011;11392;57.390;-2.468;2022-07-29T13:52:32;2.78;;;1.62;;
22449;SDS011;11392;57.390;-2.468;2022-07-29T13:54:59;3.08;;;1.60;;
22449;SDS011;11392;57.390;-2.468;2022-07-29T13:57:26;2.75;;;1.50;;
22449;SDS011;11392;57.390;-2.468;2022-07-29T13:59:56;2.20;;;1.70;;
22449;SDS011;11392;57.390;-2.468;2022-07-29T14:02:23;4.55;;;1.85;;
22449;SDS011;11392;57.390;-2.468;2022-07-29T14:04:52;3.03;;;1.87;;
22449;SDS011;11392;57.390;-2.468;2022-07-29T14:07:20;2.80;;;1.80;;
22449;SDS011;11392;57.390;-2.468;2022-07-29T14:09:48;3.00;;;2.00;;
22449;SDS011;11392;57.390;-2.468;2022-07-29T14:12:15;5.15;;;2.12;;
22449;SDS011;11392;57.390;-2.468;2022-07-29T14:14:42;4.57;;;2.47;;
22449;SDS011;11392;57.390;-2.468;2022-07-29T14:17:12;3.78;;;2.45;;
22449;SDS011;11392;57.390;-2.468;2022-07-29T14:19:40;1.87;;;1.67;;
22449;SDS011;11392;57.390;-2.468;2022-07-29T14:22:07;2.15;;;1.73;;
22449;SDS011;11392;57.390;-2.468;2022-07-29T14:24:36;2.50;;;2.17;;
22449;SDS011;11392;57.390;-2.468;2022-07-29T14:27:06;2.85;;;2.20;;
22449;SDS011;11392;57.390;-2.468;2022-07-29T14:29:34;2.35;;;1.98;;
22449;SDS011;11392;57.390;-2.468;2022-07-29T14:32:06;3.53;;;2.17;;
22449;SDS011;11392;57.390;-2.468;2022-07-29T14:34:35;2.40;;;1.80;;
22449;SDS011;11392;57.390;-2.468;2022-07-29T14:37:03;3.67;;;2.30;;
22449;SDS011;11392;57.390;-2.468;2022-07-29T14:39:41;5.22;;;2.55;;
22449;SDS011;11392;57.390;-2.468;2022-07-29T14:42:09;2.92;;;2.00;;
22449;SDS011;11392;57.390;-2.468;2022-07-29T14:44:38;3.17;;;1.92;;
22449;SDS011;11392;57.390;-2.468;2022-07-29T14:47:07;2.58;;;1.80;;
22449;SDS011;11392;57.390;-2.468;2022-07-29T14:49:35;3.97;;;1.80;;
22449;SDS011;11392;57.390;-2.468;2022-07-29T14:52:02;2.97;;;1.73;;
22449;SDS011;11392;57.390;-2.468;2022-07-29T14:54:30;3.42;;;2.00;;
22449;SDS011;11392;57.390;-2.468;2022-07-29T14:56:57;3.92;;;1.90;;
22449;SDS011;11392;57.390;-2.468;2022-07-29T14:59:24;3.58;;;2.20;;
22449;SDS011;11392;57.390;-2.468;2022-07-29T15:01:52;5.18;;;2.00;;
22449;SDS011;11392;57.390;-2.468;2022-07-29T15:04:19;3.75;;;2.20;;
22449;SDS011;11392;57.390;-2.468;2022-07-29T15:06:47;2.45;;;2.15;;
22449;SDS011;11392;57.390;-2.468;2022-07-29T15:09:14;2.92;;;2.22;;
22449;SDS011;11392;57.390;-2.468;2022-07-29T15:11:41;2.28;;;1.87;;
22449;SDS011;11392;57.390;-2.468;2022-07-29T15:14:08;5.97;;;2.90;;
22449;SDS011;11392;57.390;-2.468;2022-07-29T15:16:36;3.42;;;2.12;;
22449;SDS011;11392;57.390;-2.468;2022-07-29T15:19:04;3.28;;;2.12;;
22449;SDS011;11392;57.390;-2.468;2022-07-29T15:21:31;2.97;;;2.65;;
22449;SDS011;11392;57.390;-2.468;2022-07-29T15:23:58;7.87;;;2.53;;
22449;SDS011;11392;57.390;-2.468;2022-07-29T15:26:25;5.05;;;2.83;;
22449;SDS011;11392;57.390;-2.468;2022-07-29T15:28:52;4.82;;;2.80;;
22449;SDS011;11392;57.390;-2.468;2022-07-29T15:31:19;4.43;;;2.80;;